»·PEaware :: N831MP KTOA-KVNY

N831MP :: KTOA-KVNY

FLIGHT INFORMATION

Flight Status: Arrived
Operator: Privately registered:
United States
More flights under this callsign
Pilot: Michael P. (16839)
Aircraft: CESSNA 208 CARAVAN
(C208)
More flights by this aircraft type
Origin: KTOA Zamperini
United States
Destination: KVNY Van Nuys
United States
More flights between these airports :: More routes between these airports
Route: LAX170 LIMBO V64 SMO125 SMO SMO317 CANOG
File this flight plan on PilotEdge
Remarks:
Altitude:
(Current/Filed)
4,000ft
Speed:
(Current/Filed)
195kts
Departed: 07-Feb-21 01:46 PM
Arrived: 07-Feb-21 02:49 PM
Distance/Time
Traveled:
25nm/1:02
Distance/Time
To Go:
Arrived

Flight Plot

Page will automatically refresh every two minutes.

Flight plan parsing failed; only flown route is shown


Map Options




Map Legend


Flown Route
Filed Route
Departure Airport
Arrival Airport
Navaid (VOR, NDB)
Fix

Horizontal Profiles

Position Reports

Time Latitude Longitude Heading Altitude Ground
Speed
07-Feb-21 13:19 33.800184 -118.339255 220 110ft 0kts
07-Feb-21 13:20 33.800184 -118.339255 220 110ft 0kts
07-Feb-21 13:21 33.800184 -118.339255 220 110ft 0kts
07-Feb-21 13:22 33.800184 -118.339255 220 110ft 0kts
07-Feb-21 13:23 33.800184 -118.339255 220 110ft 0kts
07-Feb-21 13:24 33.800184 -118.339255 220 110ft 0kts
07-Feb-21 13:25 33.800184 -118.339255 220 110ft 0kts
07-Feb-21 13:26 33.800184 -118.339255 220 110ft 0kts
07-Feb-21 13:27 33.800184 -118.339255 220 110ft 0kts
07-Feb-21 13:28 33.800184 -118.339255 220 110ft 0kts
07-Feb-21 13:29 33.800184 -118.339255 220 110ft 0kts
07-Feb-21 13:30 33.800184 -118.339255 220 110ft 0kts
07-Feb-21 13:31 33.800184 -118.339255 220 110ft 0kts
07-Feb-21 13:32 33.800184 -118.339255 220 110ft 0kts
07-Feb-21 13:33 33.800184 -118.339255 220 110ft 0kts
07-Feb-21 13:34 33.800184 -118.339255 220 110ft 0kts
07-Feb-21 13:35 33.800184 -118.339255 220 110ft 0kts
07-Feb-21 13:36 33.800184 -118.339255 220 110ft 0kts
07-Feb-21 13:37 33.800184 -118.339255 220 110ft 0kts
07-Feb-21 13:39 33.800029 -118.339307 161 111ft 4kts
07-Feb-21 13:40 33.799305 -118.337674 124 110ft 0kts
07-Feb-21 13:41 33.799305 -118.337674 124 110ft 0kts
07-Feb-21 13:42 33.799332 -118.337304 55 109ft 12kts
07-Feb-21 13:43 33.798757 -118.333619 39 106ft 13kts
07-Feb-21 13:44 33.798813 -118.333565 38 106ft 0kts
07-Feb-21 13:45 33.798822 -118.333557 38 106ft 0kts
07-Feb-21 13:46 33.805253 -118.341687 304 254ft 78kts
07-Feb-21 13:47 33.822167 -118.370928 303 1126ft 114kts
07-Feb-21 13:48 33.838066 -118.399559 302 2589ft 90kts
07-Feb-21 13:49 33.850536 -118.422970 304 3609ft 90kts
07-Feb-21 13:50 33.864809 -118.457109 250 3954ft 148kts
07-Feb-21 13:51 33.825673 -118.449701 162 3979ft 165kts
07-Feb-21 13:52 33.779707 -118.447699 186 3976ft 167kts
07-Feb-21 13:52 33.760187 -118.420394 80 3985ft 170kts
07-Feb-21 13:54 33.766502 -118.354249 85 3970ft 170kts
07-Feb-21 13:55 33.768951 -118.297234 87 3980ft 170kts
07-Feb-21 13:56 33.772573 -118.240487 86 3982ft 171kts
07-Feb-21 13:56 33.800811 -118.231004 315 3974ft 168kts
07-Feb-21 13:58 33.835668 -118.281258 319 3984ft 168kts
07-Feb-21 13:58 33.865961 -118.310874 319 3982ft 169kts
07-Feb-21 13:59 33.901591 -118.347285 318 4035ft 167kts
07-Feb-21 14:00 33.937585 -118.383291 318 4045ft 168kts
07-Feb-21 14:01 33.973781 -118.419797 319 4046ft 169kts
07-Feb-21 14:02 34.009826 -118.456298 318 4046ft 169kts
07-Feb-21 14:03 34.043391 -118.495969 313 4047ft 169kts
07-Feb-21 14:04 34.076018 -118.536898 312 4050ft 169kts
07-Feb-21 14:05 34.108652 -118.577966 312 4051ft 169kts
07-Feb-21 14:06 34.145469 -118.608938 353 4341ft 155kts
07-Feb-21 14:07 34.186841 -118.614584 352 5002ft 156kts
07-Feb-21 14:08 34.232056 -118.620732 352 5045ft 167kts
07-Feb-21 14:09 34.278438 -118.627082 352 5041ft 168kts
07-Feb-21 14:10 34.325232 -118.633332 353 5045ft 169kts
07-Feb-21 14:11 34.372075 -118.639575 353 5048ft 169kts
07-Feb-21 14:12 34.419103 -118.645879 352 5046ft 169kts
07-Feb-21 14:13 34.465998 -118.652157 352 5046ft 169kts
07-Feb-21 14:14 34.511965 -118.651826 49 5036ft 170kts
07-Feb-21 14:15 34.508823 -118.596437 102 5048ft 169kts
07-Feb-21 14:16 34.484229 -118.553092 151 5049ft 167kts
07-Feb-21 14:17 34.443238 -118.526234 152 5046ft 167kts
07-Feb-21 14:18 34.399575 -118.508017 171 5034ft 167kts
07-Feb-21 14:19 34.355365 -118.504056 177 3992ft 143kts
07-Feb-21 14:20 34.318300 -118.501072 177 3157ft 121kts
07-Feb-21 14:21 34.285608 -118.496913 170 2479ft 117kts
07-Feb-21 14:22 34.252734 -118.495069 181 1667ft 121kts
07-Feb-21 14:23 34.220385 -118.490541 174 1363ft 113kts
07-Feb-21 14:24 34.185650 -118.485882 167 2114ft 132kts
07-Feb-21 14:25 34.151507 -118.471099 169 3174ft 113kts
07-Feb-21 14:26 34.125257 -118.461317 150 4456ft 98kts
07-Feb-21 14:27 34.092039 -118.444992 170 4670ft 156kts
07-Feb-21 14:28 34.047124 -118.448421 193 4640ft 165kts
07-Feb-21 14:29 34.001857 -118.457869 186 4639ft 165kts
07-Feb-21 14:30 33.956809 -118.463360 202 4637ft 165kts
07-Feb-21 14:31 33.965575 -118.510660 291 4652ft 166kts
07-Feb-21 14:32 33.983464 -118.562275 292 4643ft 166kts
07-Feb-21 14:33 34.002306 -118.613284 293 4644ft 166kts
07-Feb-21 14:34 34.021131 -118.664166 293 4645ft 166kts
07-Feb-21 14:35 34.040071 -118.715394 293 4650ft 167kts
07-Feb-21 14:36 34.058954 -118.766687 293 4650ft 167kts
07-Feb-21 14:37 34.077990 -118.818253 293 4649ft 168kts
07-Feb-21 14:38 34.108945 -118.853656 350 4648ft 169kts
07-Feb-21 14:39 34.155051 -118.858494 25 4635ft 167kts
07-Feb-21 14:40 34.177146 -118.805542 64 3770ft 179kts
07-Feb-21 14:41 34.198013 -118.753771 65 3651ft 167kts
07-Feb-21 14:42 34.201041 -118.698840 86 3626ft 165kts
07-Feb-21 14:43 34.203291 -118.642524 92 3456ft 166kts
07-Feb-21 14:44 34.199272 -118.587900 96 2895ft 153kts
07-Feb-21 14:45 34.201618 -118.539972 86 1715ft 132kts
07-Feb-21 14:46 34.222359 -118.516943 21 1753ft 88kts
07-Feb-21 14:47 34.230099 -118.493832 134 1298ft 81kts
07-Feb-21 14:48 34.211689 -118.489305 168 790ft 17kts
07-Feb-21 14:49 34.209983 -118.488337 169 787ft 12kts
07-Feb-21 14:50 34.208046 -118.487637 179 782ft 10kts
07-Feb-21 14:51 34.207960 -118.487635 177 782ft 0kts

Navigation Log

Ident Type
Flight plan parsing failed, navigation log unavailable